createdAt,value
2019-04-22T00:02:11.264Z,53.70
2019-04-22T00:04:52.535Z,53.70
2019-04-22T00:07:35.887Z,53.80
2019-04-22T00:10:13.458Z,53.50
2019-04-22T00:12:47.068Z,53.60
2019-04-22T00:15:10.156Z,53.60
2019-04-22T00:17:58.843Z,53.60
2019-04-22T00:20:28.602Z,53.50
2019-04-22T00:22:52.290Z,53.30
2019-04-22T00:25:26.650Z,53.40
2019-04-22T00:28:03.340Z,53.10
2019-04-22T00:30:45.255Z,53.30
2019-04-22T00:33:07.795Z,53.50
2019-04-22T00:35:35.378Z,53.50
2019-04-22T00:38:17.341Z,53.60
2019-04-22T00:40:44.628Z,53.60
2019-04-22T00:43:21.185Z,53.80
2019-04-22T00:45:47.935Z,53.30
2019-04-22T00:51:04.148Z,53.20
2019-04-22T00:53:30.141Z,53.50
2019-04-22T00:56:07.883Z,53.70
2019-04-22T00:58:39.467Z,54.10
2019-04-22T01:01:14.089Z,54.50
2019-04-22T01:03:50.441Z,54.40
2019-04-22T01:06:16.077Z,54.10
2019-04-22T01:08:53.754Z,53.80
2019-04-22T01:11:23.097Z,53.70
2019-04-22T01:13:50.082Z,53.40
2019-04-22T01:16:26.326Z,53.20
2019-04-22T01:18:54.845Z,53.00
2019-04-22T01:21:37.956Z,52.50
2019-04-22T01:23:59.455Z,52.30
2019-04-22T01:26:28.976Z,53.20
2019-04-22T01:28:59.235Z,52.30
2019-04-22T01:31:24.903Z,51.80
2019-04-22T01:34:08.299Z,52.00
2019-04-22T01:36:44.094Z,51.90
2019-04-22T01:39:24.414Z,51.70
2019-04-22T01:44:33.273Z,51.90
2019-04-22T01:46:57.057Z,51.90
2019-04-22T01:49:33.536Z,52.00
2019-04-22T01:52:04.475Z,51.90
2019-04-22T01:54:40.289Z,51.70
2019-04-22T01:57:16.140Z,51.40
2019-04-22T01:59:31.871Z,51.10
2019-04-22T02:02:16.433Z,51.10
2019-04-22T02:04:51.691Z,51.20
2019-04-22T02:07:16.885Z,51.00
2019-04-22T02:09:49.590Z,50.60
2019-04-22T02:12:21.367Z,50.50
2019-04-22T02:14:52.413Z,50.30
2019-04-22T02:17:32.858Z,50.20
2019-04-22T02:20:06.750Z,49.80
2019-04-22T02:22:50.116Z,49.60
2019-04-22T02:25:11.105Z,48.90
2019-04-22T02:27:43.212Z,48.20
2019-04-22T02:30:06.139Z,48.30
2019-04-22T02:35:24.006Z,46.90
2019-04-22T02:37:55.012Z,46.60
2019-04-22T02:40:34.701Z,47.20
2019-04-22T02:43:05.086Z,47.40
2019-04-22T02:45:39.409Z,46.90
2019-04-22T02:48:18.804Z,46.80
2019-04-22T02:50:36.679Z,46.50
2019-04-22T02:53:14.344Z,45.70
2019-04-22T02:55:40.794Z,45.60
2019-04-22T02:58:21.853Z,45.10
2019-04-22T03:08:30.261Z,44.60
2019-04-22T03:11:04.053Z,44.90
2019-04-22T03:13:40.354Z,45.00
2019-04-22T03:18:48.126Z,44.80
2019-04-22T03:21:10.538Z,44.00
2019-04-22T03:26:22.558Z,44.10
2019-04-22T03:28:51.183Z,44.40
2019-04-22T03:34:49.479Z,44.40
2019-04-22T03:39:24.858Z,44.10
2019-04-22T03:44:18.745Z,43.90
2019-04-22T03:46:44.299Z,43.60
2019-04-22T03:49:32.876Z,43.30
2019-04-22T03:57:22.020Z,42.70
2019-04-22T03:59:33.751Z,42.50
2019-04-22T04:09:33.372Z,42.40
2019-04-22T04:12:03.595Z,42.10
2019-04-22T04:17:08.779Z,41.90
2019-04-22T04:20:03.910Z,41.50
2019-04-22T04:22:21.889Z,41.60
2019-04-22T04:30:09.979Z,42.10
2019-04-22T04:37:44.569Z,42.30
2019-04-22T04:45:31.687Z,42.30
2019-04-22T04:50:18.399Z,42.20
2019-04-22T04:55:28.399Z,41.60
2019-04-22T04:58:25.177Z,41.90
2019-04-22T05:08:19.806Z,40.90
2019-04-22T05:13:18.853Z,40.50
2019-04-22T05:16:03.378Z,40.60
2019-04-22T05:23:30.016Z,40.00
2019-04-22T05:26:04.261Z,40.80
2019-04-22T05:28:33.796Z,40.00
2019-04-22T05:31:08.409Z,40.20
2019-04-22T05:33:36.043Z,40.00
2019-04-22T05:36:14.275Z,39.90
2019-04-22T05:38:50.126Z,39.50
2019-04-22T05:41:17.740Z,39.90
2019-04-22T05:43:50.286Z,39.30
2019-04-22T05:46:20.214Z,39.50
2019-04-22T05:48:53.897Z,39.70
2019-04-22T05:51:27.892Z,39.30
2019-04-22T05:54:01.513Z,39.40
2019-04-22T05:56:37.296Z,39.60
2019-04-22T05:59:03.493Z,39.70
2019-04-22T06:01:44.963Z,39.40
2019-04-22T06:06:35.349Z,39.30
2019-04-22T06:09:10.735Z,39.00
2019-04-22T06:11:38.577Z,38.70
2019-04-22T06:14:15.262Z,38.90
2019-04-22T06:16:58.708Z,39.00
2019-04-22T06:19:24.781Z,38.90
2019-04-22T06:22:00.821Z,39.80
2019-04-22T06:29:39.905Z,39.10
2019-04-22T06:32:26.644Z,38.70
2019-04-22T06:34:42.175Z,38.60
2019-04-22T06:37:17.417Z,38.60
2019-04-22T06:39:51.067Z,38.70
2019-04-22T06:42:21.527Z,38.70
2019-04-22T06:44:57.929Z,38.70
2019-04-22T06:47:43.960Z,38.50
2019-04-22T06:50:03.882Z,38.30
2019-04-22T06:52:38.193Z,38.40
2019-04-22T06:55:16.708Z,38.30
2019-04-22T06:57:44.992Z,38.10
2019-04-22T07:00:17.486Z,37.60
2019-04-22T07:03:10.950Z,37.30
2019-04-22T07:05:23.606Z,37.50
2019-04-22T07:08:04.433Z,37.90
2019-04-22T07:10:35.041Z,38.20
2019-04-22T07:13:01.400Z,38.40
2019-04-22T07:15:46.636Z,38.30
2019-04-22T07:18:11.473Z,38.40
2019-04-22T07:23:13.434Z,38.90
2019-04-22T07:28:15.708Z,39.50
2019-04-22T07:30:56.267Z,39.60
2019-04-22T07:33:37.843Z,39.80
2019-04-22T07:36:06.701Z,37.80
2019-04-22T07:40:55.493Z,39.30
2019-04-22T07:43:40.870Z,39.80
2019-04-22T07:46:00.586Z,40.50
2019-04-22T07:48:38.188Z,41.00
2019-04-22T07:51:07.500Z,41.90
2019-04-22T07:53:45.431Z,43.50
2019-04-22T07:56:12.213Z,45.60
2019-04-22T07:58:48.805Z,47.00
2019-04-22T08:01:20.474Z,47.90
2019-04-22T08:04:01.903Z,51.10
2019-04-22T08:06:26.764Z,54.50
2019-04-22T08:09:00.477Z,57.40
2019-04-22T08:14:03.530Z,57.10
2019-04-22T08:16:38.247Z,60.50
2019-04-22T08:19:14.163Z,60.00
2019-04-22T08:21:38.432Z,60.40
2019-04-22T08:24:28.821Z,54.60
2019-04-22T08:26:50.330Z,60.80
2019-04-22T08:29:20.210Z,59.50
2019-04-22T08:31:54.808Z,63.20
2019-04-22T08:34:27.528Z,62.70
2019-04-22T08:37:34.264Z,64.80
2019-04-22T08:39:45.333Z,65.50
2019-04-22T08:41:57.211Z,65.90
2019-04-22T08:44:52.201Z,66.30
2019-04-22T08:47:15.243Z,67.40
2019-04-22T08:49:42.446Z,68.90
2019-04-22T08:52:16.301Z,66.90
2019-04-22T08:54:43.672Z,67.00
2019-04-22T08:57:18.427Z,66.90
2019-04-22T08:59:48.958Z,67.20
2019-04-22T09:02:25.934Z,68.10
2019-04-22T09:04:55.959Z,68.50
2019-04-22T09:07:30.274Z,68.70
2019-04-22T09:09:55.374Z,69.80
2019-04-22T09:12:46.706Z,69.90
2019-04-22T09:14:57.574Z,70.00
2019-04-22T09:17:40.219Z,70.00
2019-04-22T09:20:13.023Z,70.10
2019-04-22T09:22:47.300Z,70.50
2019-04-22T09:25:16.664Z,70.90
2019-04-22T09:27:51.235Z,72.10
2019-04-22T09:30:27.499Z,72.90
2019-04-22T09:33:06.075Z,73.10
2019-04-22T09:35:31.653Z,73.60
2019-04-22T09:38:22.818Z,74.00
2019-04-22T09:40:37.530Z,74.80
2019-04-22T09:43:09.974Z,75.80
2019-04-22T09:45:43.424Z,75.20
2019-04-22T09:48:18.076Z,74.90
2019-04-22T09:53:25.530Z,76.20
2019-04-22T09:55:51.103Z,75.30
2019-04-22T09:58:29.663Z,75.80
2019-04-22T10:01:05.910Z,74.30
2019-04-22T10:03:29.352Z,73.60
2019-04-22T10:06:09.887Z,75.30
2019-04-22T10:08:43.546Z,75.20
2019-04-22T10:11:15.390Z,75.80
2019-04-22T10:13:48.026Z,76.50
2019-04-22T10:16:17.373Z,76.40
2019-04-22T10:21:27.048Z,78.30
2019-04-22T10:23:59.946Z,78.00
2019-04-22T10:26:33.454Z,77.40
2019-04-22T10:31:36.897Z,77.70
2019-04-22T10:33:56.046Z,78.20
2019-04-22T10:36:15.105Z,78.80
2019-04-22T10:38:46.606Z,78.50
2019-04-22T10:41:18.483Z,79.00
2019-04-22T10:43:50.827Z,78.40
2019-04-22T10:46:22.211Z,77.10
2019-04-22T10:48:54.493Z,76.40
2019-04-22T10:51:26.562Z,75.80
2019-04-22T10:53:57.660Z,77.40
2019-04-22T10:56:28.618Z,76.80
2019-04-22T10:59:00.497Z,76.40
2019-04-22T11:01:31.764Z,76.90
2019-04-22T11:04:03.426Z,76.40
2019-04-22T11:06:40.035Z,76.60
2019-04-22T11:09:10.467Z,77.80
2019-04-22T11:11:48.780Z,77.80
2019-04-22T11:14:14.670Z,77.90
2019-04-22T11:53:06.950Z,80.30
2019-04-22T11:55:40.423Z,81.10
2019-04-22T11:58:12.889Z,81.50
2019-04-22T12:00:45.289Z,82.00
2019-04-22T12:03:17.184Z,81.90
2019-04-22T12:05:49.950Z,82.00
2019-04-22T12:08:22.840Z,82.70
2019-04-22T12:10:58.207Z,82.40
2019-04-22T12:13:28.269Z,82.50
2019-04-22T12:16:00.933Z,82.60
2019-04-22T12:18:33.330Z,82.10
2019-04-22T12:21:05.520Z,81.40
2019-04-22T12:23:39.048Z,81.20
2019-04-22T12:26:16.169Z,81.10
2019-04-22T12:28:44.667Z,81.00
2019-04-22T12:31:17.666Z,80.80
2019-04-22T12:33:49.624Z,80.30
2019-04-22T12:36:22.598Z,79.10
2019-04-22T12:38:55.662Z,79.50
2019-04-22T12:41:27.762Z,79.30
2019-04-22T12:44:07.523Z,80.20
2019-04-22T12:46:39.610Z,80.10
2019-04-22T12:49:12.191Z,79.80
2019-04-22T12:51:45.342Z,79.70
2019-04-22T12:54:17.206Z,79.70
2019-04-22T12:56:49.160Z,79.60
2019-04-22T12:59:21.489Z,79.00
2019-04-22T13:01:53.332Z,78.80
2019-04-22T13:04:25.314Z,78.50
2019-04-22T13:06:57.682Z,78.60
2019-04-22T13:09:29.809Z,78.50
2019-04-22T13:12:03.235Z,78.20
2019-04-22T13:14:34.884Z,78.50
2019-04-22T13:17:08.169Z,78.70
2019-04-22T13:19:40.427Z,79.00
2019-04-22T13:22:12.542Z,79.20
2019-04-22T13:24:45.744Z,79.30
2019-04-22T13:27:19.240Z,79.00
2019-04-22T13:29:51.020Z,79.60
2019-04-22T13:32:24.940Z,79.00
2019-04-22T13:35:01.163Z,79.20
2019-04-22T13:37:30.785Z,79.50
2019-04-22T13:40:05.293Z,79.60
2019-04-22T13:42:37.512Z,79.70
2019-04-22T13:45:11.642Z,79.30
2019-04-22T13:48:02.987Z,79.70
2019-04-22T13:50:51.427Z,79.70
2019-04-22T13:53:37.718Z,79.90
2019-04-22T13:55:53.233Z,79.30
2019-04-22T13:58:12.378Z,79.50
2019-04-22T14:00:34.215Z,79.60
2019-04-22T14:03:08.735Z,80.20
2019-04-22T14:05:42.603Z,79.90
2019-04-22T14:08:16.131Z,80.30
2019-04-22T14:10:48.432Z,81.20
2019-04-22T14:13:21.680Z,81.50
2019-04-22T14:15:55.337Z,81.90
2019-04-22T14:18:28.631Z,82.00
2019-04-22T14:21:00.955Z,83.40
2019-04-22T14:23:33.105Z,83.30
2019-04-22T14:26:05.245Z,83.30
2019-04-22T14:28:37.514Z,83.00
2019-04-22T14:31:10.492Z,83.20
2019-04-22T14:33:46.468Z,83.30
2019-04-22T14:36:17.105Z,83.50
2019-04-22T14:38:49.761Z,83.40
2019-04-22T14:41:49.037Z,83.10
2019-04-22T14:45:00.278Z,82.90
2019-04-22T14:47:03.503Z,82.40
2019-04-22T14:49:28.623Z,82.00
2019-04-22T14:52:10.277Z,81.70
2019-04-22T14:54:28.333Z,81.10
2019-04-22T14:56:44.558Z,81.00
2019-04-22T14:59:16.841Z,81.10
2019-04-22T15:01:49.660Z,81.20
2019-04-22T15:04:21.780Z,81.30
2019-04-22T15:06:54.738Z,81.30
2019-04-22T15:09:27.905Z,82.00
2019-04-22T15:12:12.051Z,81.80
2019-04-22T15:14:33.169Z,81.10
2019-04-22T15:17:06.891Z,81.00
2019-04-22T15:19:40.110Z,80.80
2019-04-22T15:22:12.676Z,79.90
2019-04-22T15:24:45.027Z,80.70
2019-04-22T15:27:18.322Z,81.00
2019-04-22T15:29:51.618Z,81.70
2019-04-22T15:32:23.627Z,81.10
2019-04-22T15:34:55.644Z,80.40
2019-04-22T15:37:28.290Z,79.50
2019-04-22T15:40:00.596Z,79.00
2019-04-22T15:42:36.156Z,78.80
2019-04-22T15:45:08.596Z,78.40
2019-04-22T15:47:40.016Z,78.10
2019-04-22T15:50:14.098Z,78.60
2019-04-22T15:52:50.047Z,78.50
2019-04-22T15:55:20.589Z,78.10
2019-04-22T15:57:53.914Z,77.80
2019-04-22T16:00:38.256Z,77.10
2019-04-22T16:02:59.632Z,76.50
2019-04-22T16:05:32.244Z,75.90
2019-04-22T16:08:04.650Z,74.40
2019-04-22T16:10:37.767Z,74.60
2019-04-22T16:13:17.314Z,73.60
2019-04-22T16:15:44.501Z,73.90
2019-04-22T16:18:18.032Z,72.40
2019-04-22T16:20:50.336Z,72.00
2019-04-22T16:23:24.608Z,71.30
2019-04-22T16:25:56.568Z,72.90
2019-04-22T16:28:29.317Z,75.40
2019-04-22T16:31:01.503Z,76.60
2019-04-22T16:33:36.559Z,77.60
2019-04-22T16:36:07.092Z,78.10
2019-04-22T16:38:40.624Z,79.20
2019-04-22T16:41:12.890Z,79.20
2019-04-22T16:43:44.915Z,79.20
2019-04-22T16:46:16.749Z,79.30
2019-04-22T16:48:49.702Z,78.20
2019-04-22T16:51:22.234Z,77.80
2019-04-22T16:53:54.065Z,76.50
2019-04-22T16:56:26.711Z,75.50
2019-04-22T16:58:59.093Z,76.30
2019-04-22T17:01:32.668Z,76.00
2019-04-22T17:04:06.919Z,74.00
2019-04-22T17:06:41.239Z,74.70
2019-04-22T17:09:17.091Z,73.90
2019-04-22T17:11:47.745Z,74.30
2019-04-22T17:14:29.664Z,73.80
2019-04-22T17:16:52.799Z,74.20
2019-04-22T17:19:24.760Z,73.90
2019-04-22T17:21:57.634Z,73.40
2019-04-22T17:24:29.982Z,74.40
2019-04-22T17:27:02.333Z,75.90
2019-04-22T17:29:34.763Z,76.70
2019-04-22T17:32:13.218Z,76.80
2019-04-22T17:34:41.247Z,76.10
2019-04-22T17:37:21.672Z,77.40
2019-04-22T17:40:04.717Z,77.70
2019-04-22T17:42:39.852Z,76.50
2019-04-22T17:45:19.215Z,77.10
2019-04-22T17:47:39.713Z,76.10
2019-04-22T17:50:28.550Z,76.90
2019-04-22T17:53:03.173Z,75.90
2019-04-22T17:55:36.477Z,76.20
2019-04-22T17:58:07.959Z,76.90
2019-04-22T18:00:32.293Z,77.30
2019-04-22T18:03:03.107Z,76.70
2019-04-22T18:05:34.670Z,76.90
2019-04-22T18:08:17.405Z,76.70
2019-04-22T18:10:47.374Z,76.20
2019-04-22T18:13:27.777Z,76.00
2019-04-22T18:15:54.907Z,76.20
2019-04-22T18:18:33.650Z,76.10
2019-04-22T18:20:56.377Z,76.20
2019-04-22T18:23:24.428Z,75.90
2019-04-22T18:26:05.616Z,75.90
2019-04-22T18:28:45.252Z,75.80
2019-04-22T18:31:12.019Z,76.00
2019-04-22T18:33:43.344Z,75.30
2019-04-22T18:36:19.752Z,75.30
2019-04-22T18:39:03.082Z,75.00
2019-04-22T18:41:25.073Z,75.10
2019-04-22T18:44:07.992Z,75.60
2019-04-22T18:46:31.454Z,75.80
2019-04-22T18:49:11.292Z,76.50
2019-04-22T18:51:42.634Z,75.40
2019-04-22T18:54:18.300Z,76.00
2019-04-22T18:56:48.067Z,76.20
2019-04-22T18:59:12.490Z,75.70
2019-04-22T19:01:35.856Z,75.50
2019-04-22T19:04:15.203Z,75.50
2019-04-22T19:06:58.660Z,75.40
2019-04-22T19:09:41.600Z,75.50
2019-04-22T19:14:49.938Z,75.60
2019-04-22T19:17:28.525Z,77.00
2019-04-22T19:20:00.082Z,76.30
2019-04-22T19:22:25.381Z,75.90
2019-04-22T19:24:47.606Z,76.10
2019-04-22T19:27:26.588Z,75.90
2019-04-22T19:30:07.459Z,76.40
2019-04-22T19:35:19.786Z,75.90
2019-04-22T19:37:52.264Z,75.20
2019-04-22T19:40:42.037Z,75.70
2019-04-22T19:43:03.960Z,75.30
2019-04-22T19:45:33.062Z,75.80
2019-04-22T19:48:16.662Z,75.20
2019-04-22T19:50:52.731Z,75.20
2019-04-22T19:53:38.810Z,75.30
2019-04-22T19:55:49.654Z,75.30
2019-04-22T19:58:20.141Z,75.40
2019-04-22T20:00:51.688Z,75.60
2019-04-22T20:03:37.754Z,75.60
2019-04-22T20:06:05.583Z,75.80
2019-04-22T20:08:42.364Z,75.50
2019-04-22T20:11:19.716Z,75.70
2019-04-22T20:13:51.577Z,75.70
2019-04-22T20:16:08.607Z,75.70
2019-04-22T20:18:56.522Z,76.40
2019-04-22T20:21:31.478Z,75.50
2019-04-22T20:23:49.163Z,75.80
2019-04-22T20:26:24.507Z,75.30
2019-04-22T20:29:02.747Z,75.90
2019-04-22T20:31:41.060Z,75.90
2019-04-22T20:34:16.211Z,76.00
2019-04-22T20:37:01.702Z,75.80
2019-04-22T20:39:12.486Z,75.80
2019-04-22T20:41:41.012Z,75.80
2019-04-22T20:44:32.360Z,75.30
2019-04-22T20:46:57.389Z,75.50
2019-04-22T20:49:32.201Z,75.70
2019-04-22T20:52:06.367Z,75.70
2019-04-22T20:54:39.021Z,75.90
2019-04-22T20:57:07.400Z,75.50
2019-04-22T20:59:37.141Z,75.80
2019-04-22T21:02:12.208Z,75.90
2019-04-22T21:04:41.544Z,75.80
2019-04-22T21:07:19.659Z,76.20
2019-04-22T21:09:53.957Z,76.50
2019-04-22T21:12:22.397Z,76.40
2019-04-22T21:15:10.565Z,76.00
2019-04-22T21:17:36.182Z,76.40
2019-04-22T21:20:18.349Z,76.40
2019-04-22T21:22:43.314Z,76.40
2019-04-22T21:25:11.565Z,76.40
2019-04-22T21:27:52.670Z,75.90
2019-04-22T21:30:24.560Z,75.70
2019-04-22T21:32:53.465Z,75.60
2019-04-22T21:35:51.936Z,75.70
2019-04-22T21:38:08.723Z,76.40
2019-04-22T21:40:35.473Z,75.40
2019-04-22T21:43:13.685Z,75.60
2019-04-22T21:45:39.266Z,75.10
2019-04-22T21:48:28.101Z,75.40
2019-04-22T21:50:54.307Z,75.40
2019-04-22T21:53:31.491Z,75.40
2019-04-22T21:56:00.346Z,75.00
2019-04-22T21:58:35.767Z,74.70
2019-04-22T22:01:16.977Z,74.60
2019-04-22T22:03:41.671Z,74.30
2019-04-22T22:06:04.861Z,74.10
2019-04-22T22:08:46.191Z,74.40
2019-04-22T22:11:13.938Z,74.50
2019-04-22T22:13:50.553Z,74.70
2019-04-22T22:16:18.897Z,74.70
2019-04-22T22:19:04.082Z,74.90
2019-04-22T22:24:05.900Z,74.90
2019-04-22T22:26:40.038Z,74.90
2019-04-22T22:31:47.312Z,76.40
2019-04-22T22:34:16.605Z,74.90
2019-04-22T22:36:40.342Z,75.60
2019-04-22T22:39:16.498Z,75.30
2019-04-22T22:41:34.158Z,75.30
2019-04-22T22:44:14.130Z,75.00
2019-04-22T22:46:56.091Z,74.50
2019-04-22T22:49:33.013Z,75.00
2019-04-22T22:52:31.214Z,75.50
2019-04-22T22:54:39.289Z,75.30
2019-04-22T22:57:21.398Z,74.70
2019-04-22T22:59:45.047Z,74.90
2019-04-22T23:02:15.689Z,75.30
2019-04-22T23:04:53.663Z,75.50
2019-04-22T23:07:32.246Z,75.40
2019-04-22T23:10:05.071Z,75.20
2019-04-22T23:12:40.586Z,74.80
2019-04-22T23:14:58.975Z,74.80
2019-04-22T23:17:22.542Z,74.80
2019-04-22T23:19:53.734Z,74.90
2019-04-22T23:22:32.456Z,75.40
2019-04-22T23:25:23.418Z,75.60
2019-04-22T23:27:47.674Z,75.10
2019-04-22T23:30:15.870Z,75.50
2019-04-22T23:32:51.780Z,75.50
2019-04-22T23:35:30.739Z,75.60
2019-04-22T23:38:03.554Z,75.60
2019-04-22T23:40:39.014Z,76.00
2019-04-22T23:43:15.752Z,76.40
2019-04-22T23:45:46.603Z,76.50
2019-04-22T23:48:11.533Z,76.20
2019-04-22T23:50:51.105Z,75.60
2019-04-22T23:53:42.585Z,76.10
2019-04-22T23:55:59.204Z,75.80
2019-04-22T23:58:43.640Z,75.80
